EDT,Max TemperatureF,Mean TemperatureF,Min TemperatureF,Max Dew PointF,MeanDew PointF,Min DewpointF,Max Humidity, Mean Humidity, Min Humidity, Max Sea Level PressureIn, Mean Sea Level PressureIn, Min Sea Level PressureIn, Max VisibilityMiles, Mean VisibilityMiles, Min VisibilityMiles, Max Wind SpeedMPH, Mean Wind SpeedMPH, Max Gust SpeedMPH,PrecipitationIn, CloudCover, Events, WindDirDegrees
2013-3-1,75,72,68,61,59,55,73,61,47,29.96,29.93,29.89,9,7,6,12,5,,0.00,6,,324
2013-3-2,81,70,60,62,55,46,88,71,26,30.01,29.96,29.91,8,6,3,14,7,25,0.04,8,Rain,333
2013-3-3,68,64,60,56,50,32,73,56,30,30.09,30.00,29.95,12,7,6,21,11,33,0.00,5,Rain,283
2013-3-4,69,64,59,52,48,45,68,56,36,30.19,30.14,30.07,9,7,6,20,13,,0.00,3,,349
2013-3-5,75,64,52,57,54,48,94,69,44,30.20,30.16,30.12,9,7,6,7,1,,0.00,2,,83
2013-3-6,79,66,54,64,58,54,94,66,35,30.12,30.05,30.00,9,7,6,21,6,,0.00,2,,265
2013-3-7,75,68,61,59,53,48,64,54,40,30.17,30.10,30.01,9,8,6,16,10,,0.00,4,,349
2013-3-8,74,70,66,57,52,49,64,53,35,30.17,30.14,30.11,9,7,6,9,6,,0.00,5,,12
2013-3-9,75,70,66,55,52,51,64,54,37,30.19,30.14,30.10,9,7,6,12,8,,0.00,4,,26
2013-3-10,77,70,64,59,56,52,77,59,37,30.16,30.11,30.07,9,7,6,12,6,,0.00,3,,71
2013-3-11,79,72,64,64,58,55,83,63,38,30.11,30.06,30.02,9,7,6,16,6,,0.00,3,,100
2013-3-12,81,73,65,69,66,61,88,76,58,30.08,30.03,29.98,9,7,6,13,6,23,0.00,4,,147
2013-3-13,80,74,69,73,67,59,89,80,60,30.08,30.02,29.97,9,6,3,15,6,,0.12,6,Rain,180
2013-3-14,76,72,66,61,55,50,73,56,36,30.15,30.10,30.03,9,7,6,18,12,,0.00,6,,12
2013-3-15,72,68,64,69,51,48,60,53,37,30.24,30.17,30.12,9,7,6,16,10,,0.00,5,,22
2013-3-16,77,68,59,64,53,50,88,59,35,30.22,30.17,30.13,9,7,6,9,2,,0.00,5,,103
2013-3-17,79,69,59,61,57,52,88,63,37,30.18,30.13,30.08,9,7,6,12,3,,0.00,4,,127
2013-3-18,80,72,63,69,64,59,94,75,54,30.12,30.07,30.00,9,7,6,14,3,25,0.00,3,,132
2013-3-19,81,76,70,72,70,68,100,85,70,30.02,29.97,29.92,9,7,6,13,4,,0.28,6,Rain,229
2013-3-20,82,75,68,70,68,65,100,78,48,29.99,29.92,29.85,9,7,6,10,3,,0.00,2,,339
2013-3-21,80,76,71,68,63,59,78,66,42,29.97,29.89,29.81,9,7,6,13,8,,0.00,3,,308
2013-3-22,80,72,64,69,62,59,83,69,45,30.05,29.99,29.94,9,7,6,8,2,,0.00,3,,103
2013-3-23,84,78,71,76,71,68,89,82,66,30.04,29.96,29.86,9,7,6,16,8,26,0.00,2,,167
2013-3-24,87,81,75,75,73,72,94,82,57,29.93,29.85,29.75,9,7,6,21,9,,0.01,4,,180
2013-3-25,90,82,73,75,71,64,94,75,47,29.95,29.86,29.80,9,7,6,18,8,,0.08,4,Rain,254
2013-3-26,75,70,66,66,57,50,88,62,44,30.14,30.01,29.93,8,6,6,13,8,,0.00,6,Rain,4
2013-3-27,73,68,63,52,47,45,59,47,26,30.20,30.15,30.09,9,7,6,12,9,,0.00,2,,3
2013-3-28,73,68,64,54,49,44,60,48,32,30.24,30.19,30.15,9,7,6,12,9,,0.00,2,,8
2013-3-29,77,70,63,61,52,47,68,51,29,30.28,30.23,30.20,9,7,6,15,8,,0.00,4,,23
2013-3-30,75,70,64,62,54,48,68,57,31,30.27,30.22,30.19,9,7,6,14,6,,0.00,2,,81
2013-3-31,79,73,67,65,63,61,83,68,46,30.21,30.15,30.10,9,7,6,17,7,,0.00,2,,122